createdAt,value
2022-07-29T00:01:08.291Z,1.90
2022-07-29T00:03:46.642Z,1.83
2022-07-29T00:06:13.702Z,1.33
2022-07-29T00:08:40.554Z,1.10
2022-07-29T00:11:07.461Z,1.10
2022-07-29T00:13:34.393Z,1.90
2022-07-29T00:16:04.849Z,1.77
2022-07-29T00:18:32.737Z,1.40
2022-07-29T00:20:59.642Z,1.10
2022-07-29T00:23:26.561Z,2.30
2022-07-29T00:25:53.481Z,2.07
2022-07-29T00:28:20.392Z,2.47
2022-07-29T00:30:47.282Z,2.57
2022-07-29T00:33:14.289Z,2.10
2022-07-29T00:35:47.367Z,1.80
2022-07-29T00:38:15.940Z,2.17
2022-07-29T00:40:43.951Z,2.60
2022-07-29T00:43:12.630Z,1.93
2022-07-29T00:45:39.733Z,1.10
2022-07-29T00:48:07.543Z,1.80
2022-07-29T00:50:34.532Z,1.20
2022-07-29T00:53:03.412Z,1.13
2022-07-29T00:55:30.685Z,1.50
2022-07-29T00:57:59.103Z,1.73
2022-07-29T01:00:28.255Z,1.27
2022-07-29T01:02:55.250Z,1.90
2022-07-29T01:05:25.029Z,1.77
2022-07-29T01:08:13.978Z,3.10
2022-07-29T01:10:42.361Z,1.27
2022-07-29T01:13:10.144Z,1.40
2022-07-29T01:15:48.854Z,1.00
2022-07-29T01:18:34.858Z,1.53
2022-07-29T01:21:23.438Z,1.97
2022-07-29T01:24:08.425Z,1.23
2022-07-29T01:26:59.815Z,1.23
2022-07-29T01:29:35.828Z,1.17
2022-07-29T01:32:06.628Z,1.47
2022-07-29T01:34:54.238Z,1.67
2022-07-29T01:37:30.704Z,1.57
2022-07-29T01:39:59.674Z,1.43
2022-07-29T01:42:45.828Z,1.00
2022-07-29T01:45:24.207Z,1.90
2022-07-29T01:48:05.937Z,2.07
2022-07-29T01:50:45.234Z,1.90
2022-07-29T01:53:15.868Z,2.13
2022-07-29T01:55:46.598Z,2.03
2022-07-29T01:58:14.612Z,1.50
2022-07-29T02:00:43.915Z,1.73
2022-07-29T02:03:12.792Z,1.87
2022-07-29T02:05:43.353Z,1.53
2022-07-29T02:08:12.326Z,1.30
2022-07-29T02:10:41.241Z,1.30
2022-07-29T02:13:10.477Z,1.20
2022-07-29T02:15:38.462Z,1.83
2022-07-29T02:18:26.207Z,1.60
2022-07-29T02:20:56.888Z,1.00
2022-07-29T02:23:25.131Z,0.80
2022-07-29T02:25:54.877Z,1.17
2022-07-29T02:28:25.608Z,0.90
2022-07-29T02:30:54.451Z,1.17
2022-07-29T02:33:24.349Z,1.10
2022-07-29T02:35:52.077Z,1.77
2022-07-29T02:38:39.423Z,1.20
2022-07-29T02:41:13.090Z,1.10
2022-07-29T02:43:41.594Z,1.40
2022-07-29T02:46:28.890Z,1.20
2022-07-29T02:49:01.928Z,1.43
2022-07-29T02:52:03.820Z,1.00
2022-07-29T02:54:51.649Z,1.03
2022-07-29T02:57:54.312Z,1.10
2022-07-29T03:00:25.142Z,0.87
2022-07-29T03:02:55.309Z,1.00
2022-07-29T03:05:23.478Z,0.70
2022-07-29T03:08:05.687Z,0.70
2022-07-29T03:10:33.035Z,0.97
2022-07-29T03:13:01.113Z,1.00
2022-07-29T03:15:28.532Z,1.00
2022-07-29T03:17:56.606Z,1.00
2022-07-29T03:20:24.060Z,1.00
2022-07-29T03:22:51.205Z,0.80
2022-07-29T03:25:20.326Z,0.90
2022-07-29T03:27:48.374Z,0.77
2022-07-29T03:30:18.378Z,0.80
2022-07-29T03:32:49.579Z,0.70
2022-07-29T03:35:20.507Z,1.10
2022-07-29T03:37:47.826Z,0.87
2022-07-29T03:40:37.806Z,1.03
2022-07-29T03:43:06.597Z,1.00
2022-07-29T03:45:35.195Z,1.00
2022-07-29T03:48:11.142Z,1.00
2022-07-29T03:50:38.156Z,1.50
2022-07-29T03:53:05.266Z,1.00
2022-07-29T03:55:38.602Z,0.83
2022-07-29T03:58:06.327Z,0.90
2022-07-29T04:00:34.593Z,1.30
2022-07-29T04:03:02.283Z,1.00
2022-07-29T04:05:29.277Z,0.90
2022-07-29T04:07:56.249Z,0.80
2022-07-29T04:10:31.946Z,1.10
2022-07-29T04:13:01.158Z,0.80
2022-07-29T04:15:31.073Z,0.73
2022-07-29T04:17:59.753Z,0.97
2022-07-29T04:20:26.741Z,0.80
2022-07-29T04:22:53.734Z,0.83
2022-07-29T04:25:20.949Z,0.80
2022-07-29T04:28:08.140Z,0.93
2022-07-29T04:30:36.884Z,1.00
2022-07-29T04:33:06.103Z,0.70
2022-07-29T04:35:37.992Z,1.17
2022-07-29T04:38:07.289Z,1.10
2022-07-29T04:40:42.335Z,0.70
2022-07-29T04:43:09.228Z,0.70
2022-07-29T04:45:38.720Z,1.00
2022-07-29T04:48:05.901Z,0.90
2022-07-29T04:50:32.818Z,0.93
2022-07-29T04:52:59.746Z,0.80
2022-07-29T04:55:27.218Z,0.90
2022-07-29T04:57:54.126Z,0.70
2022-07-29T05:00:21.180Z,1.10
2022-07-29T05:02:48.142Z,0.73
2022-07-29T05:05:15.018Z,0.93
2022-07-29T05:07:42.478Z,1.10
2022-07-29T05:10:10.760Z,0.80
2022-07-29T05:12:38.052Z,0.80
2022-07-29T05:15:05.644Z,0.80
2022-07-29T05:17:32.570Z,0.97
2022-07-29T05:19:59.540Z,1.40
2022-07-29T05:22:26.538Z,0.90
2022-07-29T05:24:53.376Z,0.90
2022-07-29T05:27:20.544Z,0.80
2022-07-29T05:29:47.624Z,0.63
2022-07-29T05:32:14.611Z,0.90
2022-07-29T05:34:51.171Z,0.90
2022-07-29T05:37:19.802Z,0.70
2022-07-29T05:39:50.447Z,1.00
2022-07-29T05:42:24.729Z,1.50
2022-07-29T05:44:51.862Z,1.00
2022-07-29T05:47:18.866Z,1.20
2022-07-29T05:49:47.133Z,3.10
2022-07-29T05:52:14.571Z,2.20
2022-07-29T05:54:41.811Z,1.30
2022-07-29T05:57:08.727Z,0.93
2022-07-29T05:59:39.185Z,0.93
2022-07-29T06:02:06.335Z,1.30
2022-07-29T06:04:34.529Z,1.40
2022-07-29T06:07:01.784Z,1.37
2022-07-29T06:09:29.293Z,1.50
2022-07-29T06:11:56.445Z,1.10
2022-07-29T06:14:23.334Z,2.57
2022-07-29T06:16:50.388Z,2.90
2022-07-29T06:19:17.529Z,2.23
2022-07-29T06:21:45.169Z,1.83
2022-07-29T06:24:16.255Z,1.80
2022-07-29T06:26:43.716Z,2.40
2022-07-29T06:29:13.951Z,1.23
2022-07-29T06:31:40.841Z,3.83
2022-07-29T06:34:08.132Z,1.83
2022-07-29T06:36:39.831Z,3.30
2022-07-29T06:39:09.131Z,4.70
2022-07-29T06:41:36.615Z,3.70
2022-07-29T06:44:05.457Z,3.70
2022-07-29T06:46:33.269Z,2.40
2022-07-29T06:49:02.623Z,3.13
2022-07-29T06:51:30.191Z,2.27
2022-07-29T06:54:02.391Z,2.37
2022-07-29T06:56:38.641Z,2.33
2022-07-29T06:59:11.870Z,2.10
2022-07-29T07:01:40.963Z,4.23
2022-07-29T07:04:09.649Z,4.60
2022-07-29T07:06:37.508Z,2.53
2022-07-29T07:09:05.112Z,3.80
2022-07-29T07:11:32.252Z,4.43
2022-07-29T07:14:03.463Z,5.00
2022-07-29T07:16:32.477Z,6.83
2022-07-29T07:19:00.205Z,8.10
2022-07-29T07:21:28.797Z,8.20
2022-07-29T07:23:57.811Z,6.67
2022-07-29T07:26:24.830Z,10.23
2022-07-29T07:28:51.773Z,7.90
2022-07-29T07:31:18.910Z,6.40
2022-07-29T07:33:46.057Z,8.50
2022-07-29T07:36:13.206Z,8.53
2022-07-29T07:38:40.129Z,10.43
2022-07-29T07:41:07.244Z,5.77
2022-07-29T07:43:34.147Z,8.37
2022-07-29T07:46:01.210Z,13.40
2022-07-29T07:48:28.246Z,11.80
2022-07-29T07:50:55.413Z,6.50
2022-07-29T07:53:22.789Z,13.90
2022-07-29T07:58:37.205Z,11.33
2022-07-29T08:01:04.302Z,8.90
2022-07-29T08:03:31.342Z,16.17
2022-07-29T08:05:58.437Z,15.37
2022-07-29T08:08:25.546Z,14.60
2022-07-29T08:11:00.105Z,9.93
2022-07-29T08:13:30.984Z,6.73
2022-07-29T08:15:58.972Z,6.30
2022-07-29T08:18:30.725Z,15.83
2022-07-29T08:20:58.587Z,2.73
2022-07-29T08:23:31.628Z,3.73
2022-07-29T08:26:14.372Z,4.57
2022-07-29T08:28:45.728Z,4.23
2022-07-29T08:31:13.894Z,3.03
2022-07-29T08:33:41.337Z,6.60
2022-07-29T08:36:08.617Z,4.00
2022-07-29T08:38:36.052Z,5.83
2022-07-29T08:41:03.103Z,2.50
2022-07-29T08:43:30.482Z,5.87
2022-07-29T08:45:57.571Z,2.87
2022-07-29T08:48:28.833Z,4.67
2022-07-29T08:50:57.829Z,5.00
2022-07-29T08:53:28.064Z,10.10
2022-07-29T08:55:56.063Z,14.93
2022-07-29T08:58:24.608Z,12.17
2022-07-29T09:00:55.447Z,2.60
2022-07-29T09:03:25.821Z,3.60
2022-07-29T09:05:53.431Z,2.90
2022-07-29T09:08:21.100Z,3.87
2022-07-29T09:10:48.318Z,14.60
2022-07-29T09:13:15.439Z,2.87
2022-07-29T09:15:42.469Z,3.07
2022-07-29T09:18:19.789Z,3.80
2022-07-29T09:21:16.413Z,5.80
2022-07-29T09:24:11.312Z,1.90
2022-07-29T09:26:44.210Z,2.57
2022-07-29T09:29:12.688Z,3.23
2022-07-29T09:31:41.942Z,3.70
2022-07-29T09:34:11.080Z,3.37
2022-07-29T09:36:49.709Z,2.97
2022-07-29T09:39:27.905Z,4.00
2022-07-29T09:41:58.652Z,4.23
2022-07-29T09:44:26.816Z,3.00
2022-07-29T09:46:59.736Z,2.30
2022-07-29T09:49:27.540Z,2.27
2022-07-29T09:52:09.803Z,1.57
2022-07-29T09:54:38.008Z,2.97
2022-07-29T09:57:07.107Z,3.07
2022-07-29T09:59:34.547Z,3.70
2022-07-29T10:02:01.797Z,1.33
2022-07-29T10:04:42.527Z,1.90
2022-07-29T10:07:10.367Z,2.50
2022-07-29T10:09:37.342Z,3.20
2022-07-29T10:12:10.236Z,3.67
2022-07-29T10:14:37.780Z,5.60
2022-07-29T10:17:06.212Z,3.23
2022-07-29T10:19:34.890Z,4.67
2022-07-29T10:22:04.584Z,2.50
2022-07-29T10:24:32.637Z,3.80
2022-07-29T10:27:01.633Z,2.07
2022-07-29T10:29:29.895Z,2.53
2022-07-29T10:32:12.141Z,4.43
2022-07-29T10:34:57.923Z,2.37
2022-07-29T10:37:37.400Z,3.33
2022-07-29T10:40:37.554Z,2.97
2022-07-29T10:43:27.866Z,4.13
2022-07-29T10:45:59.266Z,3.60
2022-07-29T10:48:28.786Z,2.30
2022-07-29T10:51:06.924Z,5.10
2022-07-29T10:53:51.178Z,3.73
2022-07-29T10:56:28.491Z,4.93
2022-07-29T10:59:27.107Z,2.77
2022-07-29T11:02:35.331Z,1.67
2022-07-29T11:04:53.253Z,2.17
2022-07-29T11:07:20.227Z,3.43
2022-07-29T11:13:00.502Z,2.50
2022-07-29T11:15:28.643Z,2.20
2022-07-29T11:17:59.457Z,3.80
2022-07-29T11:20:37.977Z,5.00
2022-07-29T11:23:36.611Z,4.50
2022-07-29T11:26:18.604Z,3.77
2022-07-29T11:28:54.537Z,2.20
2022-07-29T11:31:42.972Z,5.40
2022-07-29T11:34:30.326Z,2.27
2022-07-29T11:37:10.147Z,3.43
2022-07-29T11:39:38.925Z,4.17
2022-07-29T11:42:32.044Z,3.07
2022-07-29T11:45:42.466Z,4.47
2022-07-29T11:48:32.041Z,4.37
2022-07-29T11:51:00.869Z,5.07
2022-07-29T11:53:29.131Z,7.30
2022-07-29T11:58:49.952Z,4.80
2022-07-29T12:01:18.458Z,3.70
2022-07-29T12:03:45.536Z,7.50
2022-07-29T12:06:14.841Z,5.47
2022-07-29T12:08:43.676Z,3.67
2022-07-29T12:11:23.408Z,4.63
2022-07-29T12:13:54.579Z,5.60
2022-07-29T12:16:29.495Z,5.07
2022-07-29T12:18:58.451Z,7.70
2022-07-29T12:21:26.686Z,4.60
2022-07-29T12:24:01.745Z,8.90
2022-07-29T12:26:34.022Z,4.33
2022-07-29T12:29:03.194Z,4.10
2022-07-29T12:31:43.684Z,3.60
2022-07-29T12:34:16.347Z,3.60
2022-07-29T12:36:44.193Z,7.40
2022-07-29T12:39:12.509Z,3.23
2022-07-29T12:41:40.002Z,3.50
2022-07-29T12:44:07.053Z,4.70
2022-07-29T12:46:34.206Z,4.30
2022-07-29T12:49:01.293Z,3.30
2022-07-29T12:51:37.292Z,3.17
2022-07-29T12:54:04.176Z,5.97
2022-07-29T12:56:42.704Z,5.63
2022-07-29T12:59:13.916Z,6.60
2022-07-29T13:01:40.887Z,9.23
2022-07-29T13:04:07.858Z,5.30
2022-07-29T13:06:39.513Z,6.30
2022-07-29T13:09:09.832Z,3.70
2022-07-29T13:11:47.936Z,4.67
2022-07-29T13:14:34.806Z,3.40
2022-07-29T13:17:12.632Z,4.50
2022-07-29T13:19:49.323Z,3.87
2022-07-29T13:22:25.900Z,6.50
2022-07-29T13:24:56.921Z,9.67
2022-07-29T13:27:30.120Z,4.57
2022-07-29T13:29:58.896Z,6.30
2022-07-29T13:32:28.279Z,8.43
2022-07-29T13:35:01.797Z,7.20
2022-07-29T13:37:35.059Z,5.20
2022-07-29T13:40:04.109Z,6.07
2022-07-29T13:42:32.830Z,9.60
2022-07-29T13:45:00.613Z,5.07
2022-07-29T13:47:32.089Z,7.83
2022-07-29T13:50:01.705Z,8.10
2022-07-29T13:52:29.466Z,9.70
2022-07-29T13:54:57.079Z,7.10
2022-07-29T13:57:24.046Z,9.07
2022-07-29T13:59:54.193Z,6.10
2022-07-29T14:02:25.966Z,7.67
2022-07-29T14:04:54.587Z,6.90
2022-07-29T14:07:22.288Z,5.57
2022-07-29T14:09:49.286Z,10.17
2022-07-29T14:12:16.246Z,8.10
2022-07-29T14:14:43.293Z,5.20
2022-07-29T14:17:10.565Z,5.80
2022-07-29T14:19:39.233Z,7.73
2022-07-29T14:22:08.962Z,4.20
2022-07-29T14:24:37.644Z,4.37
2022-07-29T14:27:06.119Z,3.10
2022-07-29T14:29:37.343Z,2.70
2022-07-29T14:32:09.916Z,2.90
2022-07-29T14:34:38.178Z,3.60
2022-07-29T14:37:09.410Z,6.97
2022-07-29T14:39:43.392Z,5.77
2022-07-29T14:42:12.364Z,4.23
2022-07-29T14:44:40.924Z,4.80
2022-07-29T14:47:08.575Z,3.97
2022-07-29T14:49:36.147Z,4.47
2022-07-29T14:52:04.083Z,5.60
2022-07-29T14:54:31.063Z,4.77
2022-07-29T14:56:58.630Z,7.13
2022-07-29T14:59:26.546Z,7.20
2022-07-29T15:01:53.781Z,5.17
2022-07-29T15:04:21.000Z,7.40
2022-07-29T15:06:48.313Z,3.87
2022-07-29T15:09:15.333Z,3.50
2022-07-29T15:11:42.332Z,4.07
2022-07-29T15:14:09.387Z,4.70
2022-07-29T15:16:37.839Z,3.40
2022-07-29T15:19:05.347Z,4.47
2022-07-29T15:21:32.353Z,4.07
2022-07-29T15:23:59.480Z,5.20
2022-07-29T15:26:26.530Z,5.03
2022-07-29T15:28:53.729Z,5.40
2022-07-29T15:31:20.841Z,4.00
2022-07-29T15:33:47.807Z,7.70
2022-07-29T15:36:25.611Z,5.67
2022-07-29T15:39:02.190Z,5.37
2022-07-29T15:41:29.101Z,5.90
2022-07-29T15:43:55.984Z,8.47
2022-07-29T15:46:41.416Z,7.10
2022-07-29T15:49:08.577Z,3.73
2022-07-29T15:51:35.549Z,6.30
2022-07-29T15:54:03.648Z,2.77
2022-07-29T15:56:31.280Z,2.17
2022-07-29T15:58:58.573Z,3.33
2022-07-29T16:01:25.679Z,2.67
2022-07-29T16:03:53.025Z,2.07
2022-07-29T16:06:20.189Z,4.90
2022-07-29T16:08:47.127Z,2.20
2022-07-29T16:11:14.027Z,3.80
2022-07-29T16:13:40.963Z,2.40
2022-07-29T16:16:08.864Z,2.60
2022-07-29T16:18:35.913Z,2.83
2022-07-29T16:21:03.009Z,1.70
2022-07-29T16:23:29.973Z,3.20
2022-07-29T16:25:59.988Z,2.50
2022-07-29T16:28:27.985Z,2.23
2022-07-29T16:30:55.032Z,3.23
2022-07-29T16:33:22.186Z,5.13
2022-07-29T16:35:49.878Z,2.00
2022-07-29T16:38:16.867Z,2.80
2022-07-29T16:40:44.245Z,2.57
2022-07-29T16:43:11.195Z,4.47
2022-07-29T16:45:46.033Z,3.40
2022-07-29T16:48:14.769Z,2.23
2022-07-29T16:50:43.373Z,3.90
2022-07-29T16:53:10.934Z,3.67
2022-07-29T16:55:38.621Z,5.23
2022-07-29T16:58:09.903Z,4.67
2022-07-29T17:00:37.061Z,5.13
2022-07-29T17:03:05.496Z,4.23
2022-07-29T17:05:52.099Z,4.53
2022-07-29T17:08:20.135Z,5.67
2022-07-29T17:10:47.557Z,5.50
2022-07-29T17:13:14.786Z,6.00
2022-07-29T17:15:44.497Z,5.20
2022-07-29T17:18:12.412Z,5.67
2022-07-29T17:20:41.981Z,2.87
2022-07-29T17:23:09.435Z,2.23
2022-07-29T17:25:36.662Z,4.30
2022-07-29T17:28:03.782Z,5.23
2022-07-29T17:30:30.772Z,2.87
2022-07-29T17:32:57.750Z,3.60
2022-07-29T17:35:43.135Z,3.07
2022-07-29T17:38:10.147Z,2.40
2022-07-29T17:40:37.531Z,4.40
2022-07-29T17:43:04.950Z,2.17
2022-07-29T17:45:48.748Z,4.37
2022-07-29T17:48:17.890Z,4.80
2022-07-29T17:50:45.781Z,5.03
2022-07-29T17:53:16.377Z,4.10
2022-07-29T17:55:48.619Z,5.57
2022-07-29T17:58:16.201Z,2.77
2022-07-29T18:00:43.452Z,3.57
2022-07-29T18:03:10.576Z,6.47
2022-07-29T18:05:37.881Z,2.47
2022-07-29T18:08:05.070Z,2.60
2022-07-29T18:10:31.987Z,3.83
2022-07-29T18:12:59.218Z,3.70
2022-07-29T18:15:26.376Z,7.40
2022-07-29T18:17:57.038Z,6.37
2022-07-29T18:20:26.135Z,6.33
2022-07-29T18:22:53.363Z,2.20
2022-07-29T18:25:20.806Z,2.73
2022-07-29T18:27:47.836Z,3.07
2022-07-29T18:30:17.752Z,4.43
2022-07-29T18:33:04.950Z,3.30
2022-07-29T18:35:32.491Z,3.77
2022-07-29T18:38:00.988Z,1.10
2022-07-29T18:40:30.084Z,1.63
2022-07-29T18:42:57.159Z,2.73
2022-07-29T18:45:28.724Z,2.13
2022-07-29T18:47:56.670Z,1.83
2022-07-29T18:50:28.819Z,3.30
2022-07-29T18:52:58.833Z,2.70
2022-07-29T18:55:26.265Z,2.80
2022-07-29T18:57:56.034Z,2.90
2022-07-29T19:00:24.719Z,1.20
2022-07-29T19:02:52.804Z,1.97
2022-07-29T19:05:21.266Z,1.47
2022-07-29T19:07:48.296Z,2.00
2022-07-29T19:10:15.353Z,1.73
2022-07-29T19:12:43.847Z,1.67
2022-07-29T19:15:11.096Z,1.90
2022-07-29T19:17:39.023Z,1.90
2022-07-29T19:20:09.292Z,1.73
2022-07-29T19:22:36.202Z,1.97
2022-07-29T19:25:03.278Z,1.77
2022-07-29T19:27:31.144Z,1.17
2022-07-29T19:29:59.533Z,1.20
2022-07-29T19:32:27.146Z,1.10
2022-07-29T19:35:12.611Z,2.10
2022-07-29T19:37:39.588Z,2.10
2022-07-29T19:40:07.345Z,1.70
2022-07-29T19:42:34.295Z,2.10
2022-07-29T19:45:01.210Z,2.10
2022-07-29T19:47:28.121Z,1.20
2022-07-29T19:49:55.110Z,1.50
2022-07-29T19:52:22.085Z,2.03
2022-07-29T19:54:49.055Z,1.77
2022-07-29T19:57:15.972Z,3.50
2022-07-29T19:59:43.108Z,2.80
2022-07-29T20:02:12.346Z,3.67
2022-07-29T20:04:40.174Z,3.23
2022-07-29T20:07:07.458Z,3.07
2022-07-29T20:09:34.659Z,2.43
2022-07-29T20:12:01.692Z,1.63
2022-07-29T20:14:28.710Z,3.90
2022-07-29T20:16:55.654Z,1.70
2022-07-29T20:19:22.526Z,1.30
2022-07-29T20:21:51.328Z,3.13
2022-07-29T20:24:19.153Z,2.57
2022-07-29T20:26:46.302Z,3.50
2022-07-29T20:29:13.158Z,1.40
2022-07-29T20:31:40.469Z,2.07
2022-07-29T20:34:07.382Z,2.90
2022-07-29T20:36:34.383Z,1.70
2022-07-29T20:39:01.383Z,1.70
2022-07-29T20:41:29.109Z,1.83
2022-07-29T20:43:56.252Z,1.90
2022-07-29T20:46:23.266Z,1.33
2022-07-29T20:48:50.498Z,1.20
2022-07-29T20:51:17.628Z,1.93
2022-07-29T20:53:44.779Z,1.80
2022-07-29T20:56:12.518Z,1.60
2022-07-29T20:58:40.697Z,3.03
2022-07-29T21:01:08.292Z,1.77
2022-07-29T21:03:36.129Z,2.30
2022-07-29T21:06:03.574Z,1.80
2022-07-29T21:08:30.626Z,2.80
2022-07-29T21:10:57.700Z,1.93
2022-07-29T21:13:25.511Z,2.03
2022-07-29T21:15:57.143Z,2.20
2022-07-29T21:18:27.549Z,1.63
2022-07-29T21:20:55.139Z,2.93
2022-07-29T21:23:22.214Z,1.17
2022-07-29T21:25:49.402Z,2.50
2022-07-29T21:28:29.444Z,1.10
2022-07-29T21:30:59.516Z,1.93
2022-07-29T21:33:28.081Z,2.37
2022-07-29T21:38:42.410Z,1.40
2022-07-29T21:41:11.361Z,2.13
2022-07-29T21:43:41.852Z,3.80
2022-07-29T21:46:09.761Z,0.90
2022-07-29T21:48:39.119Z,1.27
2022-07-29T21:51:08.130Z,1.67
2022-07-29T21:53:35.193Z,1.47
2022-07-29T21:56:02.375Z,1.10
2022-07-29T21:58:29.339Z,1.77
2022-07-29T22:00:56.319Z,3.03
2022-07-29T22:03:23.386Z,3.80
2022-07-29T22:05:50.374Z,3.77
2022-07-29T22:08:20.118Z,3.80
2022-07-29T22:10:47.052Z,2.07
2022-07-29T22:13:13.957Z,2.27
2022-07-29T22:15:45.334Z,2.13
2022-07-29T22:18:14.241Z,3.10
2022-07-29T22:20:49.400Z,2.23
2022-07-29T22:23:16.362Z,1.47
2022-07-29T22:25:43.366Z,1.53
2022-07-29T22:28:10.323Z,1.60
2022-07-29T22:30:37.368Z,1.10
2022-07-29T22:33:04.311Z,1.60
2022-07-29T22:35:31.250Z,4.07
2022-07-29T22:37:58.273Z,4.00
2022-07-29T22:40:30.702Z,2.23
2022-07-29T22:42:59.727Z,2.10
2022-07-29T22:45:26.655Z,1.73
2022-07-29T22:47:59.107Z,1.77
2022-07-29T22:50:26.510Z,2.00
2022-07-29T22:52:53.434Z,4.20
2022-07-29T22:55:20.655Z,3.23
2022-07-29T22:57:47.580Z,2.80
2022-07-29T23:00:14.947Z,1.93
2022-07-29T23:02:41.949Z,2.40
2022-07-29T23:05:09.353Z,2.30
2022-07-29T23:07:36.322Z,3.23
2022-07-29T23:10:04.589Z,3.00
2022-07-29T23:12:31.765Z,1.30
2022-07-29T23:14:58.723Z,2.00
2022-07-29T23:17:25.812Z,2.90
2022-07-29T23:19:52.754Z,2.20
2022-07-29T23:22:19.626Z,1.87
2022-07-29T23:24:46.501Z,2.57
2022-07-29T23:27:13.398Z,1.70
2022-07-29T23:29:40.341Z,2.13
2022-07-29T23:32:07.462Z,2.10
2022-07-29T23:34:34.406Z,2.00
2022-07-29T23:37:01.613Z,2.73
2022-07-29T23:39:28.734Z,3.80
2022-07-29T23:41:55.604Z,5.20
2022-07-29T23:44:22.496Z,3.03
2022-07-29T23:46:49.424Z,3.00
2022-07-29T23:49:16.402Z,2.70
2022-07-29T23:51:43.321Z,3.37
2022-07-29T23:54:10.300Z,2.33
2022-07-29T23:56:37.304Z,1.90
2022-07-29T23:59:04.291Z,2.50
